createdAt,value
2022-10-25T00:02:19.498Z,14.00
2022-10-25T00:04:47.529Z,14.30
2022-10-25T00:07:15.257Z,14.20
2022-10-25T00:09:43.155Z,15.40
2022-10-25T00:12:10.991Z,15.50
2022-10-25T00:14:38.777Z,15.80
2022-10-25T00:17:06.660Z,14.30
2022-10-25T00:19:34.533Z,15.40
2022-10-25T00:22:19.925Z,15.50
2022-10-25T00:24:47.719Z,14.80
2022-10-25T00:27:15.551Z,15.40
2022-10-25T00:29:43.408Z,16.50
2022-10-25T00:32:11.291Z,14.80
2022-10-25T00:34:42.012Z,14.80
2022-10-25T00:37:09.811Z,15.10
2022-10-25T00:39:37.631Z,16.20
2022-10-25T00:42:06.317Z,15.10
2022-10-25T00:44:37.054Z,15.50
2022-10-25T00:47:14.657Z,14.80
2022-10-25T00:49:44.278Z,15.20
2022-10-25T00:52:12.472Z,14.90
2022-10-25T00:54:46.349Z,15.80
2022-10-25T00:57:33.079Z,16.00
2022-10-25T01:00:02.083Z,15.80
2022-10-25T01:02:30.281Z,14.90
2022-10-25T01:04:58.609Z,15.00
2022-10-25T01:07:26.521Z,15.50
2022-10-25T01:09:54.502Z,14.20
2022-10-25T01:12:22.260Z,15.40
2022-10-25T01:14:51.672Z,15.40
2022-10-25T01:17:35.859Z,14.50
2022-10-25T01:20:37.487Z,15.30
2022-10-25T01:23:24.015Z,14.90
2022-10-25T01:26:09.936Z,15.20
2022-10-25T01:29:01.944Z,16.20
2022-10-25T01:31:48.550Z,15.70
2022-10-25T01:35:05.703Z,15.60
2022-10-25T01:38:00.612Z,16.60
2022-10-25T01:40:40.362Z,17.00
2022-10-25T01:43:28.550Z,15.80
2022-10-25T01:46:11.700Z,15.90
2022-10-25T01:48:47.983Z,16.10
2022-10-25T01:51:18.055Z,16.50
2022-10-25T01:53:51.625Z,16.80
2022-10-25T01:56:27.985Z,17.10
2022-10-25T01:59:14.054Z,17.90
2022-10-25T02:02:13.201Z,16.60
2022-10-25T02:04:55.567Z,16.00
2022-10-25T02:07:37.383Z,16.80
2022-10-25T02:10:09.849Z,16.60
2022-10-25T02:12:56.403Z,15.70
2022-10-25T02:15:51.816Z,16.50
2022-10-25T02:18:24.504Z,16.10
2022-10-25T02:20:54.426Z,16.10
2022-10-25T02:23:23.633Z,16.30
2022-10-25T02:25:52.805Z,17.40
2022-10-25T02:28:24.406Z,16.80
2022-10-25T02:30:54.029Z,16.30
2022-10-25T02:33:21.859Z,17.10
2022-10-25T02:36:12.433Z,17.00
2022-10-25T02:38:41.507Z,16.80
2022-10-25T02:41:15.809Z,16.50
2022-10-25T02:43:43.799Z,16.30
2022-10-25T02:46:14.705Z,17.70
2022-10-25T02:48:42.673Z,16.60
2022-10-25T02:51:12.190Z,17.30
2022-10-25T02:53:40.762Z,16.20
2022-10-25T02:56:10.363Z,17.20
2022-10-25T02:58:40.258Z,16.80
2022-10-25T03:01:08.845Z,16.90
2022-10-25T03:03:37.204Z,16.90
2022-10-25T03:06:05.737Z,16.90
2022-10-25T03:08:33.889Z,17.80
2022-10-25T03:11:02.439Z,16.30
2022-10-25T03:13:30.408Z,18.00
2022-10-25T03:15:58.316Z,18.80
2022-10-25T03:18:26.172Z,18.30
2022-10-25T03:21:01.734Z,17.70
2022-10-25T03:23:30.202Z,17.60
2022-10-25T03:26:00.180Z,19.10
2022-10-25T03:28:29.333Z,19.00
2022-10-25T03:30:58.265Z,19.30
2022-10-25T03:33:27.609Z,19.00
2022-10-25T03:35:56.170Z,18.90
2022-10-25T03:38:24.063Z,19.40
2022-10-25T03:40:53.703Z,20.40
2022-10-25T03:45:54.304Z,18.60
2022-10-25T03:48:22.197Z,19.00
2022-10-25T03:50:49.888Z,18.20
2022-10-25T03:53:17.783Z,19.80
2022-10-25T03:55:45.543Z,19.30
2022-10-25T03:58:13.292Z,19.90
2022-10-25T04:00:41.205Z,19.90
2022-10-25T04:03:09.587Z,20.00
2022-10-25T04:05:37.530Z,19.00
2022-10-25T04:08:05.663Z,18.30
2022-10-25T04:10:33.827Z,18.70
2022-10-25T04:13:01.840Z,19.90
2022-10-25T04:15:29.841Z,18.90
2022-10-25T04:17:57.759Z,19.60
2022-10-25T04:20:25.592Z,18.90
2022-10-25T04:22:55.750Z,18.10
2022-10-25T04:25:25.191Z,18.70
2022-10-25T04:27:53.463Z,19.80
2022-10-25T04:30:21.254Z,20.20
2022-10-25T04:32:49.712Z,19.60
2022-10-25T04:35:18.078Z,19.00
2022-10-25T04:37:45.852Z,19.50
2022-10-25T04:40:13.623Z,19.40
2022-10-25T04:42:41.502Z,20.80
2022-10-25T04:45:10.086Z,20.00
2022-10-25T04:47:37.931Z,20.60
2022-10-25T04:50:06.133Z,19.10
2022-10-25T04:52:34.105Z,20.50
2022-10-25T04:55:01.965Z,21.40
2022-10-25T04:57:29.852Z,22.30
2022-10-25T04:59:57.692Z,21.80
2022-10-25T05:02:25.618Z,21.30
2022-10-25T05:04:54.094Z,20.30
2022-10-25T05:07:22.270Z,21.30
2022-10-25T05:09:50.449Z,21.00
2022-10-25T05:12:18.238Z,20.60
2022-10-25T05:14:46.045Z,21.90
2022-10-25T05:17:13.863Z,20.90
2022-10-25T05:19:41.673Z,20.30
2022-10-25T05:22:09.460Z,21.70
2022-10-25T05:24:37.298Z,22.00
2022-10-25T05:27:05.076Z,22.60
2022-10-25T05:29:32.864Z,22.80
2022-10-25T05:32:00.633Z,24.30
2022-10-25T05:34:28.736Z,23.60
2022-10-25T05:36:57.732Z,22.20
2022-10-25T05:39:25.617Z,22.10
2022-10-25T05:41:53.522Z,21.90
2022-10-25T05:44:21.312Z,22.90
2022-10-25T05:46:49.105Z,24.90
2022-10-25T05:49:16.927Z,23.70
2022-10-25T05:51:44.706Z,23.00
2022-10-25T05:54:14.795Z,22.40
2022-10-25T05:56:43.203Z,23.20
2022-10-25T05:59:13.207Z,23.10
2022-10-25T06:01:43.954Z,22.60
2022-10-25T06:04:12.967Z,23.20
2022-10-25T06:06:42.375Z,22.70
2022-10-25T06:09:11.507Z,23.20
2022-10-25T06:11:39.911Z,22.20
2022-10-25T06:14:10.025Z,22.30
2022-10-25T06:16:38.294Z,23.40
2022-10-25T06:19:06.682Z,23.70
2022-10-25T06:21:34.463Z,23.80
2022-10-25T06:24:02.237Z,22.00
2022-10-25T06:26:31.318Z,23.70
2022-10-25T06:29:01.363Z,24.70
2022-10-25T06:31:30.220Z,23.80
2022-10-25T06:34:02.348Z,22.70
2022-10-25T06:36:31.436Z,24.40
2022-10-25T06:39:05.316Z,25.00
2022-10-25T06:41:38.885Z,27.10
2022-10-25T06:44:07.942Z,26.50
2022-10-25T06:47:04.489Z,27.20
2022-10-25T06:49:26.808Z,25.10
2022-10-25T06:51:54.756Z,25.80
2022-10-25T06:54:22.565Z,26.10
2022-10-25T06:56:50.390Z,27.90
2022-10-25T06:59:20.382Z,27.20
2022-10-25T07:01:48.331Z,27.30
2022-10-25T07:04:16.623Z,26.90
2022-10-25T07:06:44.396Z,25.80
2022-10-25T07:09:13.216Z,26.10
2022-10-25T07:11:41.981Z,26.10
2022-10-25T07:14:11.156Z,25.70
2022-10-25T07:16:39.157Z,25.30
2022-10-25T07:19:06.975Z,26.30
2022-10-25T07:21:34.927Z,25.60
2022-10-25T07:24:03.365Z,26.90
2022-10-25T07:26:35.236Z,27.50
2022-10-25T07:29:04.553Z,27.70
2022-10-25T07:31:38.017Z,28.20
2022-10-25T07:34:06.612Z,27.80
2022-10-25T07:36:34.517Z,27.30
2022-10-25T07:39:02.304Z,27.00
2022-10-25T07:41:30.118Z,24.50
2022-10-25T07:43:57.890Z,27.10
2022-10-25T07:46:26.020Z,25.90
2022-10-25T07:48:53.823Z,26.90
2022-10-25T07:51:21.729Z,27.10
2022-10-25T07:53:50.045Z,25.30
2022-10-25T07:56:23.156Z,25.30
2022-10-25T07:58:52.986Z,26.70
2022-10-25T08:01:25.002Z,26.10
2022-10-25T08:03:53.967Z,24.80
2022-10-25T08:06:24.482Z,25.30
2022-10-25T08:08:52.835Z,25.90
2022-10-25T08:11:21.400Z,27.10
2022-10-25T08:13:50.453Z,26.50
2022-10-25T08:16:18.743Z,26.40
2022-10-25T08:18:46.847Z,27.00
2022-10-25T08:21:15.089Z,25.00
2022-10-25T08:23:42.901Z,25.30
2022-10-25T08:26:10.999Z,24.70
2022-10-25T08:28:38.723Z,26.10
2022-10-25T08:31:06.782Z,28.20
2022-10-25T08:33:35.897Z,28.10
2022-10-25T08:36:03.838Z,25.80
2022-10-25T08:38:31.657Z,26.60
2022-10-25T08:40:59.513Z,26.60
2022-10-25T08:43:36.403Z,27.60
2022-10-25T08:46:20.298Z,26.70
2022-10-25T08:49:05.634Z,26.80
2022-10-25T08:51:37.876Z,26.10
2022-10-25T08:54:31.913Z,26.80
2022-10-25T08:57:41.914Z,26.20
2022-10-25T09:00:22.880Z,27.40
2022-10-25T09:02:55.774Z,23.10
2022-10-25T09:05:56.528Z,22.30
2022-10-25T09:08:35.969Z,20.40
2022-10-25T09:11:03.756Z,20.80
2022-10-25T09:13:51.071Z,21.70
2022-10-25T09:16:27.098Z,20.50
2022-10-25T09:18:59.645Z,22.70
2022-10-25T09:21:43.171Z,21.20
2022-10-25T09:24:37.703Z,22.20
2022-10-25T09:27:07.200Z,22.30
2022-10-25T09:29:41.554Z,22.10
2022-10-25T09:32:22.265Z,22.60
2022-10-25T09:34:53.172Z,23.80
2022-10-25T09:37:30.101Z,24.40
2022-10-25T09:40:06.960Z,25.20
2022-10-25T09:42:40.098Z,25.20
2022-10-25T09:45:18.524Z,24.60
2022-10-25T09:47:57.385Z,23.40
2022-10-25T09:50:29.955Z,26.90
2022-10-25T09:53:12.980Z,24.00
2022-10-25T09:55:43.995Z,24.60
2022-10-25T09:58:27.388Z,23.00
2022-10-25T10:01:00.402Z,22.90
2022-10-25T10:03:31.113Z,21.30
2022-10-25T10:06:28.838Z,20.90
2022-10-25T10:09:16.663Z,19.20
2022-10-25T10:11:47.832Z,19.80
2022-10-25T10:14:25.799Z,19.00
2022-10-25T10:16:58.132Z,18.80
2022-10-25T10:19:30.038Z,17.40
2022-10-25T10:22:01.756Z,17.50
2022-10-25T10:24:32.471Z,18.80
2022-10-25T10:27:03.244Z,18.90
2022-10-25T10:29:35.159Z,18.90
2022-10-25T10:32:27.830Z,18.30
2022-10-25T10:34:57.848Z,18.70
2022-10-25T10:37:27.954Z,19.10
2022-10-25T10:39:55.739Z,20.50
2022-10-25T10:42:37.150Z,18.90
2022-10-25T10:45:15.475Z,20.60
2022-10-25T10:47:57.260Z,18.90
2022-10-25T10:50:32.748Z,19.90
2022-10-25T10:53:04.002Z,19.60
2022-10-25T10:55:34.687Z,18.90
2022-10-25T10:58:06.976Z,21.00
2022-10-25T11:00:35.710Z,20.20
2022-10-25T11:03:03.698Z,20.50
2022-10-25T11:05:37.702Z,21.60
2022-10-25T11:08:08.447Z,21.20
2022-10-25T11:10:38.430Z,21.80
2022-10-25T11:13:12.535Z,21.00
2022-10-25T11:16:11.277Z,21.70
2022-10-25T11:19:02.788Z,20.70
2022-10-25T11:22:18.651Z,21.30
2022-10-25T11:25:06.466Z,22.60
2022-10-25T11:27:47.418Z,23.20
2022-10-25T11:30:21.236Z,23.90
2022-10-25T11:33:04.178Z,23.10
2022-10-25T11:35:34.962Z,22.80
2022-10-25T11:38:10.120Z,23.70
2022-10-25T11:40:46.321Z,22.70
2022-10-25T11:43:32.760Z,24.00
2022-10-25T11:46:15.140Z,22.90
2022-10-25T11:49:04.320Z,22.20
2022-10-25T11:52:05.867Z,21.20
2022-10-25T11:54:47.221Z,20.70
2022-10-25T11:57:45.369Z,21.40
2022-10-25T12:00:19.829Z,21.40
2022-10-25T12:03:44.590Z,21.00
2022-10-25T12:06:18.148Z,22.10
2022-10-25T12:09:21.884Z,21.70
2022-10-25T12:12:00.600Z,21.60
2022-10-25T12:14:41.945Z,20.70
2022-10-25T12:17:19.124Z,21.10
2022-10-25T12:19:50.193Z,20.30
2022-10-25T12:22:24.664Z,20.20
2022-10-25T12:25:03.045Z,20.40
2022-10-25T12:27:31.191Z,19.30
2022-10-25T12:30:05.175Z,20.00
2022-10-25T12:32:42.005Z,19.70
2022-10-25T12:35:29.628Z,18.50
2022-10-25T12:38:02.997Z,17.70
2022-10-25T12:40:41.320Z,17.20
2022-10-25T12:43:31.390Z,18.00
2022-10-25T12:46:20.659Z,18.80
2022-10-25T12:49:11.473Z,17.60
2022-10-25T12:52:10.447Z,16.80
2022-10-25T12:55:09.116Z,16.00
2022-10-25T12:57:54.303Z,14.20
2022-10-25T13:00:23.837Z,9.30
2022-10-25T13:03:26.768Z,9.80
2022-10-25T13:06:22.391Z,8.60
2022-10-25T13:08:50.941Z,6.10
2022-10-25T13:11:18.771Z,5.10
2022-10-25T13:13:51.060Z,4.60
2022-10-25T13:16:25.967Z,4.70
2022-10-25T13:19:12.555Z,4.40
2022-10-25T13:21:53.320Z,4.30
2022-10-25T13:24:42.728Z,4.60
2022-10-25T13:27:13.702Z,4.50
2022-10-25T13:30:06.725Z,3.70
2022-10-25T13:32:41.250Z,4.30
2022-10-25T13:35:21.346Z,4.90
2022-10-25T13:37:50.492Z,4.00
2022-10-25T13:40:30.214Z,4.40
2022-10-25T13:43:03.344Z,4.60
2022-10-25T13:45:43.024Z,4.70
2022-10-25T13:48:13.776Z,4.00
2022-10-25T13:50:44.978Z,3.80
2022-10-25T13:53:22.731Z,3.50
2022-10-25T13:56:03.467Z,3.60
2022-10-25T13:58:32.495Z,3.90
2022-10-25T14:01:19.213Z,4.70
2022-10-25T14:03:54.230Z,4.10
2022-10-25T14:06:32.492Z,4.00
2022-10-25T14:09:08.972Z,3.10
2022-10-25T14:11:46.094Z,3.80
2022-10-25T14:14:22.357Z,4.00
2022-10-25T14:19:37.347Z,4.20
2022-10-25T14:22:15.339Z,4.70
2022-10-25T14:24:47.793Z,4.30
2022-10-25T14:27:37.062Z,5.50
2022-10-25T14:30:26.095Z,4.80
2022-10-25T14:33:00.085Z,5.30
2022-10-25T14:35:34.620Z,5.70
2022-10-25T14:38:13.784Z,5.60
2022-10-25T14:40:41.491Z,5.50
2022-10-25T14:43:23.222Z,5.90
2022-10-25T14:46:15.520Z,6.20
2022-10-25T14:48:46.958Z,5.20
2022-10-25T14:51:22.958Z,4.80
2022-10-25T14:54:02.146Z,4.40
2022-10-25T14:56:45.162Z,4.60
2022-10-25T14:59:31.584Z,5.00
2022-10-25T15:02:06.227Z,5.00
2022-10-25T15:04:40.761Z,4.80
2022-10-25T15:07:24.229Z,4.90
2022-10-25T15:09:54.429Z,5.20
2022-10-25T15:12:25.236Z,5.60
2022-10-25T15:14:54.707Z,5.60
2022-10-25T15:17:22.584Z,5.00
2022-10-25T15:20:27.714Z,5.70
2022-10-25T15:23:22.136Z,5.30
2022-10-25T15:25:49.925Z,5.70
2022-10-25T15:28:19.008Z,5.50
2022-10-25T15:30:49.940Z,5.40
2022-10-25T15:33:23.106Z,5.40
2022-10-25T15:35:54.112Z,6.20
2022-10-25T15:38:37.076Z,6.70
2022-10-25T15:41:14.240Z,6.00
2022-10-25T15:43:42.005Z,6.30
2022-10-25T15:46:30.197Z,6.00
2022-10-25T15:49:00.691Z,6.40
2022-10-25T15:51:31.852Z,6.20
2022-10-25T15:53:59.683Z,5.40
2022-10-25T15:56:27.560Z,6.50
2022-10-25T15:58:55.590Z,6.30
2022-10-25T16:01:23.759Z,6.10
2022-10-25T16:03:51.600Z,6.90
2022-10-25T16:06:19.365Z,6.30
2022-10-25T16:08:47.259Z,6.70
2022-10-25T16:11:18.816Z,6.00
2022-10-25T16:13:50.076Z,6.20
2022-10-25T16:16:38.952Z,6.50
2022-10-25T16:19:16.354Z,6.90
2022-10-25T16:21:44.633Z,6.30
2022-10-25T16:24:12.866Z,6.90
2022-10-25T16:26:43.673Z,7.20
2022-10-25T16:29:21.835Z,6.70
2022-10-25T16:31:50.180Z,7.00
2022-10-25T16:34:19.773Z,7.30
2022-10-25T16:36:49.201Z,8.30
2022-10-25T16:39:16.958Z,7.40
2022-10-25T16:41:46.687Z,7.40
2022-10-25T16:44:19.495Z,7.90
2022-10-25T16:46:48.022Z,7.40
2022-10-25T16:49:16.087Z,8.00
2022-10-25T16:51:44.427Z,8.00
2022-10-25T16:54:13.028Z,7.90
2022-10-25T16:56:40.897Z,8.30
2022-10-25T16:59:08.716Z,7.70
2022-10-25T17:01:39.975Z,8.00
2022-10-25T17:04:09.850Z,8.50
2022-10-25T17:06:42.054Z,8.50
2022-10-25T17:09:11.389Z,8.80
2022-10-25T17:11:39.293Z,8.10
2022-10-25T17:14:09.691Z,9.30
2022-10-25T17:16:44.367Z,8.80
2022-10-25T17:19:12.859Z,9.00
2022-10-25T17:21:40.794Z,9.50
2022-10-25T17:24:09.852Z,8.70
2022-10-25T17:26:38.716Z,8.30
2022-10-25T17:29:06.483Z,8.60
2022-10-25T17:31:34.432Z,8.40
2022-10-25T17:34:03.906Z,9.20
2022-10-25T17:36:32.616Z,9.10
2022-10-25T17:39:00.799Z,8.90
2022-10-25T17:41:28.775Z,9.90
2022-10-25T17:43:57.084Z,9.00
2022-10-25T17:46:29.360Z,9.20
2022-10-25T17:49:06.154Z,9.50
2022-10-25T17:51:34.670Z,9.10
2022-10-25T17:54:03.357Z,9.80
2022-10-25T17:59:07.004Z,8.10
2022-10-25T18:01:35.903Z,9.30
2022-10-25T18:04:04.483Z,8.60
2022-10-25T18:06:32.417Z,10.30
2022-10-25T18:09:00.288Z,10.00
2022-10-25T18:11:28.395Z,9.90
2022-10-25T18:13:58.730Z,9.40
2022-10-25T18:16:30.590Z,9.50
2022-10-25T18:19:00.892Z,9.60
2022-10-25T18:21:29.155Z,9.70
2022-10-25T18:24:02.307Z,9.90
2022-10-25T18:26:31.557Z,10.10
2022-10-25T18:28:59.836Z,9.90
2022-10-25T18:31:28.088Z,9.50
2022-10-25T18:33:58.970Z,9.80
2022-10-25T18:36:27.784Z,9.80
2022-10-25T18:38:55.842Z,9.30
2022-10-25T18:41:26.595Z,9.30
2022-10-25T18:43:55.434Z,9.60
2022-10-25T18:46:24.873Z,9.30
2022-10-25T18:48:53.977Z,9.90
2022-10-25T18:51:23.730Z,10.00
2022-10-25T18:53:57.518Z,9.90
2022-10-25T18:58:55.316Z,10.00
2022-10-25T19:01:25.666Z,11.00
2022-10-25T19:03:56.372Z,10.70
2022-10-25T19:06:24.554Z,9.80
2022-10-25T19:08:52.374Z,10.60
2022-10-25T19:11:20.283Z,11.00
2022-10-25T19:13:51.364Z,10.40
2022-10-25T19:16:19.407Z,10.10
2022-10-25T19:18:47.222Z,11.20
2022-10-25T19:21:18.250Z,10.30
2022-10-25T19:23:46.984Z,11.00
2022-10-25T19:26:20.089Z,10.40
2022-10-25T19:28:48.098Z,9.40
2022-10-25T19:31:17.702Z,8.60
2022-10-25T19:33:47.765Z,9.80
2022-10-25T19:36:17.724Z,9.80
2022-10-25T19:38:48.276Z,10.70
2022-10-25T19:41:18.648Z,9.70
2022-10-25T19:43:46.855Z,9.80
2022-10-25T19:46:15.175Z,9.80
2022-10-25T19:48:42.994Z,9.60
2022-10-25T19:51:13.641Z,10.50
2022-10-25T19:53:41.826Z,10.70
2022-10-25T19:56:13.221Z,10.30
2022-10-25T19:58:41.558Z,10.00
2022-10-25T20:01:10.996Z,10.30
2022-10-25T20:03:40.051Z,9.90
2022-10-25T20:06:13.608Z,9.30
2022-10-25T20:08:42.911Z,9.90
2022-10-25T20:11:12.413Z,10.00
2022-10-25T20:13:40.725Z,9.10
2022-10-25T20:16:09.377Z,9.50
2022-10-25T20:18:39.195Z,9.70
2022-10-25T20:21:12.463Z,9.70
2022-10-25T20:23:42.943Z,9.20
2022-10-25T20:26:12.931Z,10.40
2022-10-25T20:28:41.944Z,10.70
2022-10-25T20:31:10.866Z,10.40
2022-10-25T20:33:40.297Z,9.50
2022-10-25T20:36:10.676Z,9.40
2022-10-25T20:38:38.689Z,9.60
2022-10-25T20:41:12.248Z,9.60
2022-10-25T20:43:41.020Z,9.60
2022-10-25T20:46:09.595Z,9.00
2022-10-25T20:48:37.685Z,9.10
2022-10-25T20:51:07.809Z,9.40
2022-10-25T20:53:36.892Z,8.90
2022-10-25T20:56:06.209Z,9.00
2022-10-25T20:58:34.502Z,9.50
2022-10-25T21:01:02.761Z,9.60
2022-10-25T21:03:31.918Z,9.50
2022-10-25T21:06:03.390Z,8.70
2022-10-25T21:08:32.230Z,9.60
2022-10-25T21:11:01.788Z,8.00
2022-10-25T21:13:32.005Z,9.00
2022-10-25T21:16:05.362Z,8.90
2022-10-25T21:18:33.433Z,8.40
2022-10-25T21:21:03.872Z,8.80
2022-10-25T21:23:32.196Z,8.70
2022-10-25T21:26:06.130Z,8.90
2022-10-25T21:31:04.976Z,8.30
2022-10-25T21:33:32.785Z,9.00
2022-10-25T21:36:09.398Z,8.30
2022-10-25T21:38:37.448Z,9.70
2022-10-25T21:41:17.272Z,9.30
2022-10-25T21:43:48.040Z,9.80
2022-10-25T21:46:17.592Z,8.90
2022-10-25T21:48:47.943Z,9.80
2022-10-25T21:51:17.221Z,8.80
2022-10-25T21:53:44.980Z,9.90
2022-10-25T21:56:15.457Z,9.60
2022-10-25T21:58:45.782Z,9.10
2022-10-25T22:01:20.025Z,9.10
2022-10-25T22:03:48.028Z,9.50
2022-10-25T22:06:18.204Z,9.80
2022-10-25T22:08:46.939Z,11.20
2022-10-25T22:11:17.950Z,10.30
2022-10-25T22:13:46.376Z,9.50
2022-10-25T22:16:16.773Z,9.70
2022-10-25T22:18:50.615Z,9.40
2022-10-25T22:23:46.695Z,9.60
2022-10-25T22:26:17.270Z,10.50
2022-10-25T22:28:45.196Z,10.30
2022-10-25T22:31:15.866Z,9.50
2022-10-25T22:33:44.915Z,9.40
2022-10-25T22:36:20.871Z,8.90
2022-10-25T22:38:48.648Z,8.40
2022-10-25T22:41:19.070Z,7.90
2022-10-25T22:43:47.888Z,9.00
2022-10-25T22:46:17.357Z,8.60
2022-10-25T22:48:45.109Z,8.60
2022-10-25T22:51:12.803Z,9.50
2022-10-25T22:53:41.929Z,9.50
2022-10-25T22:56:16.368Z,9.90
2022-10-25T22:58:51.921Z,9.00
2022-10-25T23:01:25.590Z,9.00
2022-10-25T23:03:55.841Z,11.40
2022-10-25T23:06:26.715Z,10.60
2022-10-25T23:08:56.308Z,9.50
2022-10-25T23:11:27.003Z,9.30
2022-10-25T23:13:56.356Z,8.90
2022-10-25T23:16:24.540Z,9.30
2022-10-25T23:18:52.683Z,9.70
2022-10-25T23:21:26.287Z,9.50
2022-10-25T23:23:55.028Z,8.90
2022-10-25T23:26:28.949Z,7.90
2022-10-25T23:31:26.114Z,8.40
2022-10-25T23:33:58.697Z,7.60
2022-10-25T23:36:29.208Z,7.60
2022-10-25T23:38:58.236Z,7.50
2022-10-25T23:41:26.046Z,7.80
2022-10-25T23:43:53.848Z,7.60
2022-10-25T23:46:21.742Z,8.20
2022-10-25T23:48:49.481Z,8.60
2022-10-25T23:51:18.826Z,7.80
2022-10-25T23:53:46.672Z,8.50
2022-10-25T23:56:14.917Z,8.70
2022-10-25T23:58:42.662Z,7.30
